sensor_id;sensor_type;location;lat;lon;timestamp;temperature;humidity
3705;DHT22;1868;48.918;9.438;2024-03-02T00:02:01;6.30;97.40
3705;DHT22;1868;48.918;9.438;2024-03-02T00:04:35;6.40;97.40
3705;DHT22;1868;48.918;9.438;2024-03-02T00:07:06;6.40;97.40
3705;DHT22;1868;48.918;9.438;2024-03-02T00:09:36;6.40;97.40
3705;DHT22;1868;48.918;9.438;2024-03-02T00:12:08;6.40;97.40
3705;DHT22;1868;48.918;9.438;2024-03-02T00:14:38;6.40;97.40
3705;DHT22;1868;48.918;9.438;2024-03-02T00:17:15;6.40;97.40
3705;DHT22;1868;48.918;9.438;2024-03-02T00:19:50;6.40;97.40
3705;DHT22;1868;48.918;9.438;2024-03-02T00:22:19;6.40;97.40
3705;DHT22;1868;48.918;9.438;2024-03-02T00:24:48;6.40;97.40
3705;DHT22;1868;48.918;9.438;2024-03-02T00:27:18;6.40;97.40
3705;DHT22;1868;48.918;9.438;2024-03-02T00:29:48;6.40;97.40
3705;DHT22;1868;48.918;9.438;2024-03-02T00:32:17;6.30;97.40
3705;DHT22;1868;48.918;9.438;2024-03-02T00:34:46;6.30;97.40
3705;DHT22;1868;48.918;9.438;2024-03-02T00:37:16;6.30;97.40
3705;DHT22;1868;48.918;9.438;2024-03-02T00:39:49;6.20;97.40
3705;DHT22;1868;48.918;9.438;2024-03-02T00:42:18;6.20;97.40
3705;DHT22;1868;48.918;9.438;2024-03-02T00:44:47;6.20;97.40
3705;DHT22;1868;48.918;9.438;2024-03-02T00:47:15;6.20;97.40
3705;DHT22;1868;48.918;9.438;2024-03-02T00:49:47;6.20;97.40
3705;DHT22;1868;48.918;9.438;2024-03-02T00:52:17;6.20;97.40
3705;DHT22;1868;48.918;9.438;2024-03-02T00:54:48;6.10;97.40
3705;DHT22;1868;48.918;9.438;2024-03-02T00:57:21;6.10;97.40
3705;DHT22;1868;48.918;9.438;2024-03-02T00:59:51;6.10;97.40
3705;DHT22;1868;48.918;9.438;2024-03-02T01:02:19;6.00;97.40
3705;DHT22;1868;48.918;9.438;2024-03-02T01:04:49;6.00;97.40
3705;DHT22;1868;48.918;9.438;2024-03-02T01:07:19;6.00;97.40
3705;DHT22;1868;48.918;9.438;2024-03-02T01:09:48;6.00;97.40
3705;DHT22;1868;48.918;9.438;2024-03-02T01:12:19;5.90;97.40
3705;DHT22;1868;48.918;9.438;2024-03-02T01:14:48;5.90;97.40
3705;DHT22;1868;48.918;9.438;2024-03-02T01:17:17;5.90;97.40
3705;DHT22;1868;48.918;9.438;2024-03-02T01:19:46;5.90;97.40
3705;DHT22;1868;48.918;9.438;2024-03-02T01:22:16;5.90;97.40
3705;DHT22;1868;48.918;9.438;2024-03-02T01:24:52;5.90;97.40
3705;DHT22;1868;48.918;9.438;2024-03-02T01:27:21;5.90;97.40
3705;DHT22;1868;48.918;9.438;2024-03-02T01:29:50;5.90;97.40
3705;DHT22;1868;48.918;9.438;2024-03-02T01:32:19;5.80;97.40
3705;DHT22;1868;48.918;9.438;2024-03-02T01:34:48;5.80;97.40
3705;DHT22;1868;48.918;9.438;2024-03-02T01:37:18;5.80;97.40
3705;DHT22;1868;48.918;9.438;2024-03-02T01:39:47;5.80;97.40
3705;DHT22;1868;48.918;9.438;2024-03-02T01:42:17;5.70;97.40
3705;DHT22;1868;48.918;9.438;2024-03-02T01:44:47;5.70;97.40
3705;DHT22;1868;48.918;9.438;2024-03-02T01:47:15;5.70;97.40
3705;DHT22;1868;48.918;9.438;2024-03-02T01:49:44;5.60;97.40
3705;DHT22;1868;48.918;9.438;2024-03-02T01:52:13;5.60;97.40
3705;DHT22;1868;48.918;9.438;2024-03-02T01:54:43;5.60;97.40
3705;DHT22;1868;48.918;9.438;2024-03-02T01:57:15;5.50;97.40
3705;DHT22;1868;48.918;9.438;2024-03-02T01:59:47;5.50;97.40
3705;DHT22;1868;48.918;9.438;2024-03-02T02:02:18;5.50;97.40
3705;DHT22;1868;48.918;9.438;2024-03-02T02:04:47;5.50;97.40
3705;DHT22;1868;48.918;9.438;2024-03-02T02:07:17;5.40;97.40
3705;DHT22;1868;48.918;9.438;2024-03-02T02:09:49;5.40;97.40
3705;DHT22;1868;48.918;9.438;2024-03-02T02:12:19;5.40;97.40
3705;DHT22;1868;48.918;9.438;2024-03-02T02:14:48;5.40;97.40
3705;DHT22;1868;48.918;9.438;2024-03-02T02:17:18;5.40;97.40
3705;DHT22;1868;48.918;9.438;2024-03-02T02:19:46;5.30;97.40
3705;DHT22;1868;48.918;9.438;2024-03-02T02:22:19;5.30;97.40
3705;DHT22;1868;48.918;9.438;2024-03-02T02:24:48;5.30;97.40
3705;DHT22;1868;48.918;9.438;2024-03-02T02:27:21;5.30;97.40
3705;DHT22;1868;48.918;9.438;2024-03-02T02:29:51;5.40;97.40
3705;DHT22;1868;48.918;9.438;2024-03-02T02:32:19;5.40;97.40
3705;DHT22;1868;48.918;9.438;2024-03-02T02:34:52;5.40;97.40
3705;DHT22;1868;48.918;9.438;2024-03-02T02:37:22;5.40;97.40
3705;DHT22;1868;48.918;9.438;2024-03-02T02:39:51;5.40;97.40
3705;DHT22;1868;48.918;9.438;2024-03-02T02:42:21;5.40;97.40
3705;DHT22;1868;48.918;9.438;2024-03-02T02:44:52;5.40;97.40
3705;DHT22;1868;48.918;9.438;2024-03-02T02:47:22;5.30;97.40
3705;DHT22;1868;48.918;9.438;2024-03-02T02:49:53;5.30;97.40
3705;DHT22;1868;48.918;9.438;2024-03-02T02:52:25;5.20;97.40
3705;DHT22;1868;48.918;9.438;2024-03-02T02:54:54;5.20;97.40
3705;DHT22;1868;48.918;9.438;2024-03-02T02:57:23;5.10;97.40
3705;DHT22;1868;48.918;9.438;2024-03-02T02:59:53;5.10;97.40
3705;DHT22;1868;48.918;9.438;2024-03-02T03:02:22;5.10;97.40
3705;DHT22;1868;48.918;9.438;2024-03-02T03:04:51;5.10;97.40
3705;DHT22;1868;48.918;9.438;2024-03-02T03:07:20;5.10;97.40
3705;DHT22;1868;48.918;9.438;2024-03-02T03:09:50;5.10;97.40
3705;DHT22;1868;48.918;9.438;2024-03-02T03:12:19;5.00;97.40
3705;DHT22;1868;48.918;9.438;2024-03-02T03:14:48;5.00;97.40
3705;DHT22;1868;48.918;9.438;2024-03-02T03:17:17;5.00;97.40
3705;DHT22;1868;48.918;9.438;2024-03-02T03:19:46;4.90;97.40
3705;DHT22;1868;48.918;9.438;2024-03-02T03:22:17;4.90;97.40
3705;DHT22;1868;48.918;9.438;2024-03-02T03:24:46;4.90;97.40
3705;DHT22;1868;48.918;9.438;2024-03-02T03:27:16;4.90;97.40
3705;DHT22;1868;48.918;9.438;2024-03-02T03:29:46;4.90;97.40
3705;DHT22;1868;48.918;9.438;2024-03-02T03:32:16;4.80;97.40
3705;DHT22;1868;48.918;9.438;2024-03-02T03:34:45;4.80;97.40
3705;DHT22;1868;48.918;9.438;2024-03-02T03:37:15;4.80;97.40
3705;DHT22;1868;48.918;9.438;2024-03-02T03:39:43;4.80;97.40
3705;DHT22;1868;48.918;9.438;2024-03-02T03:42:15;4.70;97.40
3705;DHT22;1868;48.918;9.438;2024-03-02T03:44:44;4.70;97.40
3705;DHT22;1868;48.918;9.438;2024-03-02T03:47:13;4.60;97.40
3705;DHT22;1868;48.918;9.438;2024-03-02T03:49:42;4.60;97.40
3705;DHT22;1868;48.918;9.438;2024-03-02T03:52:12;4.60;97.40
3705;DHT22;1868;48.918;9.438;2024-03-02T03:54:40;4.60;97.40
3705;DHT22;1868;48.918;9.438;2024-03-02T03:57:10;4.60;97.40
3705;DHT22;1868;48.918;9.438;2024-03-02T03:59:40;4.60;97.40
3705;DHT22;1868;48.918;9.438;2024-03-02T04:02:09;4.60;97.40
3705;DHT22;1868;48.918;9.438;2024-03-02T04:04:40;4.60;97.40
3705;DHT22;1868;48.918;9.438;2024-03-02T04:07:09;4.60;97.40
3705;DHT22;1868;48.918;9.438;2024-03-02T04:09:39;4.50;97.40
3705;DHT22;1868;48.918;9.438;2024-03-02T04:12:08;4.50;97.40
3705;DHT22;1868;48.918;9.438;2024-03-02T04:14:40;4.50;97.40
3705;DHT22;1868;48.918;9.438;2024-03-02T04:17:13;4.40;97.40
3705;DHT22;1868;48.918;9.438;2024-03-02T04:19:46;4.40;97.40
3705;DHT22;1868;48.918;9.438;2024-03-02T04:22:15;4.40;97.40
3705;DHT22;1868;48.918;9.438;2024-03-02T04:24:53;4.40;97.40
3705;DHT22;1868;48.918;9.438;2024-03-02T04:27:23;4.40;97.40
3705;DHT22;1868;48.918;9.438;2024-03-02T04:29:53;4.30;97.40
3705;DHT22;1868;48.918;9.438;2024-03-02T04:32:22;4.30;97.40
3705;DHT22;1868;48.918;9.438;2024-03-02T04:34:51;4.30;97.40
3705;DHT22;1868;48.918;9.438;2024-03-02T04:37:20;4.30;97.40
3705;DHT22;1868;48.918;9.438;2024-03-02T04:39:49;4.30;97.40
3705;DHT22;1868;48.918;9.438;2024-03-02T04:42:18;4.20;97.40
3705;DHT22;1868;48.918;9.438;2024-03-02T04:44:46;4.20;97.40
3705;DHT22;1868;48.918;9.438;2024-03-02T04:47:18;4.20;97.40
3705;DHT22;1868;48.918;9.438;2024-03-02T04:49:52;4.20;97.40
3705;DHT22;1868;48.918;9.438;2024-03-02T04:52:23;4.20;97.40
3705;DHT22;1868;48.918;9.438;2024-03-02T04:54:53;4.10;97.40
3705;DHT22;1868;48.918;9.438;2024-03-02T04:57:39;4.10;97.40
3705;DHT22;1868;48.918;9.438;2024-03-02T05:00:09;4.10;97.40
3705;DHT22;1868;48.918;9.438;2024-03-02T05:02:41;4.10;97.40
3705;DHT22;1868;48.918;9.438;2024-03-02T05:05:10;4.10;97.40
3705;DHT22;1868;48.918;9.438;2024-03-02T05:07:39;4.10;97.40
3705;DHT22;1868;48.918;9.438;2024-03-02T05:10:09;4.00;97.40
3705;DHT22;1868;48.918;9.438;2024-03-02T05:12:40;4.00;97.40
3705;DHT22;1868;48.918;9.438;2024-03-02T05:15:24;4.00;97.40
3705;DHT22;1868;48.918;9.438;2024-03-02T05:17:55;4.00;97.40
3705;DHT22;1868;48.918;9.438;2024-03-02T05:20:27;3.90;97.40
3705;DHT22;1868;48.918;9.438;2024-03-02T05:22:55;3.90;97.40
3705;DHT22;1868;48.918;9.438;2024-03-02T05:25:24;3.90;97.40
3705;DHT22;1868;48.918;9.438;2024-03-02T05:27:54;3.90;97.40
3705;DHT22;1868;48.918;9.438;2024-03-02T05:30:23;3.80;97.40
3705;DHT22;1868;48.918;9.438;2024-03-02T05:32:54;3.80;97.40
3705;DHT22;1868;48.918;9.438;2024-03-02T05:35:23;3.80;97.40
3705;DHT22;1868;48.918;9.438;2024-03-02T05:37:52;3.80;97.40
3705;DHT22;1868;48.918;9.438;2024-03-02T05:40:21;3.80;97.40
3705;DHT22;1868;48.918;9.438;2024-03-02T05:42:50;3.80;97.40
3705;DHT22;1868;48.918;9.438;2024-03-02T05:45:19;3.80;97.40
3705;DHT22;1868;48.918;9.438;2024-03-02T05:47:48;3.70;97.40
3705;DHT22;1868;48.918;9.438;2024-03-02T05:50:18;3.70;97.40
3705;DHT22;1868;48.918;9.438;2024-03-02T05:52:48;3.70;97.40
3705;DHT22;1868;48.918;9.438;2024-03-02T05:55:17;3.70;97.40
3705;DHT22;1868;48.918;9.438;2024-03-02T05:57:45;3.60;97.40
3705;DHT22;1868;48.918;9.438;2024-03-02T06:00:26;3.60;97.40
3705;DHT22;1868;48.918;9.438;2024-03-02T06:02:55;3.60;97.40
3705;DHT22;1868;48.918;9.438;2024-03-02T06:05:25;3.60;97.40
3705;DHT22;1868;48.918;9.438;2024-03-02T06:07:54;3.50;97.40
3705;DHT22;1868;48.918;9.438;2024-03-02T06:10:23;3.50;97.40
3705;DHT22;1868;48.918;9.438;2024-03-02T06:12:54;3.50;97.40
3705;DHT22;1868;48.918;9.438;2024-03-02T06:15:22;3.50;97.40
3705;DHT22;1868;48.918;9.438;2024-03-02T06:17:51;3.50;97.40
3705;DHT22;1868;48.918;9.438;2024-03-02T06:20:20;3.50;97.40
3705;DHT22;1868;48.918;9.438;2024-03-02T06:22:51;3.50;97.40
3705;DHT22;1868;48.918;9.438;2024-03-02T06:25:21;3.50;97.40
3705;DHT22;1868;48.918;9.438;2024-03-02T06:27:52;3.50;97.40
3705;DHT22;1868;48.918;9.438;2024-03-02T06:30:20;3.50;97.40
3705;DHT22;1868;48.918;9.438;2024-03-02T06:32:51;3.50;97.40
3705;DHT22;1868;48.918;9.438;2024-03-02T06:35:22;3.50;97.40
3705;DHT22;1868;48.918;9.438;2024-03-02T06:37:52;3.50;97.40
3705;DHT22;1868;48.918;9.438;2024-03-02T06:40:21;3.50;97.40
3705;DHT22;1868;48.918;9.438;2024-03-02T06:42:51;3.50;97.40
3705;DHT22;1868;48.918;9.438;2024-03-02T06:45:25;3.50;97.40
3705;DHT22;1868;48.918;9.438;2024-03-02T06:47:54;3.50;97.40
3705;DHT22;1868;48.918;9.438;2024-03-02T06:50:23;3.50;97.40
3705;DHT22;1868;48.918;9.438;2024-03-02T06:52:53;3.50;97.40
3705;DHT22;1868;48.918;9.438;2024-03-02T06:55:23;3.50;97.40
3705;DHT22;1868;48.918;9.438;2024-03-02T06:57:52;3.60;97.40
3705;DHT22;1868;48.918;9.438;2024-03-02T07:00:22;3.60;97.40
3705;DHT22;1868;48.918;9.438;2024-03-02T07:02:52;3.70;97.40
3705;DHT22;1868;48.918;9.438;2024-03-02T07:05:21;3.70;97.40
3705;DHT22;1868;48.918;9.438;2024-03-02T07:07:50;3.80;97.40
3705;DHT22;1868;48.918;9.438;2024-03-02T07:10:23;3.90;97.40
3705;DHT22;1868;48.918;9.438;2024-03-02T07:12:56;3.90;97.40
3705;DHT22;1868;48.918;9.438;2024-03-02T07:15:26;4.00;97.40
3705;DHT22;1868;48.918;9.438;2024-03-02T07:18:12;4.10;97.40
3705;DHT22;1868;48.918;9.438;2024-03-02T07:20:43;4.20;97.40
3705;DHT22;1868;48.918;9.438;2024-03-02T07:23:13;4.30;97.40
3705;DHT22;1868;48.918;9.438;2024-03-02T07:25:42;4.40;97.40
3705;DHT22;1868;48.918;9.438;2024-03-02T07:28:15;4.50;97.40
3705;DHT22;1868;48.918;9.438;2024-03-02T07:30:44;4.70;97.40
3705;DHT22;1868;48.918;9.438;2024-03-02T07:33:13;4.90;97.40
3705;DHT22;1868;48.918;9.438;2024-03-02T07:35:45;5.10;97.40
3705;DHT22;1868;48.918;9.438;2024-03-02T07:38:16;5.40;97.40
3705;DHT22;1868;48.918;9.438;2024-03-02T07:40:45;5.80;97.40
3705;DHT22;1868;48.918;9.438;2024-03-02T07:43:14;6.50;97.40
3705;DHT22;1868;48.918;9.438;2024-03-02T07:45:44;7.30;97.40
3705;DHT22;1868;48.918;9.438;2024-03-02T07:48:12;8.00;97.40
3705;DHT22;1868;48.918;9.438;2024-03-02T07:50:41;8.70;97.40
3705;DHT22;1868;48.918;9.438;2024-03-02T07:53:14;9.40;97.40
3705;DHT22;1868;48.918;9.438;2024-03-02T07:55:46;9.80;97.40
3705;DHT22;1868;48.918;9.438;2024-03-02T07:58:15;10.20;97.40
3705;DHT22;1868;48.918;9.438;2024-03-02T08:00:45;10.60;97.40
3705;DHT22;1868;48.918;9.438;2024-03-02T08:03:17;11.20;97.40
3705;DHT22;1868;48.918;9.438;2024-03-02T08:05:46;11.80;97.40
3705;DHT22;1868;48.918;9.438;2024-03-02T08:08:16;12.50;97.40
3705;DHT22;1868;48.918;9.438;2024-03-02T08:10:45;13.00;97.40
3705;DHT22;1868;48.918;9.438;2024-03-02T08:13:14;13.40;97.40
3705;DHT22;1868;48.918;9.438;2024-03-02T08:15:43;13.70;97.40
3705;DHT22;1868;48.918;9.438;2024-03-02T08:18:12;13.70;97.40
3705;DHT22;1868;48.918;9.438;2024-03-02T08:20:42;13.70;97.40
3705;DHT22;1868;48.918;9.438;2024-03-02T08:23:12;13.60;97.40
3705;DHT22;1868;48.918;9.438;2024-03-02T08:25:43;13.50;97.40
3705;DHT22;1868;48.918;9.438;2024-03-02T08:28:15;13.40;97.40
3705;DHT22;1868;48.918;9.438;2024-03-02T08:30:47;13.20;97.40
3705;DHT22;1868;48.918;9.438;2024-03-02T08:33:18;13.10;97.40
3705;DHT22;1868;48.918;9.438;2024-03-02T08:35:47;12.90;97.40
3705;DHT22;1868;48.918;9.438;2024-03-02T08:38:16;12.70;97.40
3705;DHT22;1868;48.918;9.438;2024-03-02T08:40:50;12.60;97.40
3705;DHT22;1868;48.918;9.438;2024-03-02T08:43:19;12.40;97.40
3705;DHT22;1868;48.918;9.438;2024-03-02T08:45:50;12.30;97.40
3705;DHT22;1868;48.918;9.438;2024-03-02T08:48:21;12.20;97.40
3705;DHT22;1868;48.918;9.438;2024-03-02T08:50:50;12.20;97.40
3705;DHT22;1868;48.918;9.438;2024-03-02T08:53:20;12.20;97.40
3705;DHT22;1868;48.918;9.438;2024-03-02T08:55:53;12.20;97.40
3705;DHT22;1868;48.918;9.438;2024-03-02T08:58:25;12.30;97.40
3705;DHT22;1868;48.918;9.438;2024-03-02T09:00:54;12.10;97.40
3705;DHT22;1868;48.918;9.438;2024-03-02T09:03:23;12.00;97.40
3705;DHT22;1868;48.918;9.438;2024-03-02T09:05:52;11.90;97.40
3705;DHT22;1868;48.918;9.438;2024-03-02T09:08:21;12.00;97.40
3705;DHT22;1868;48.918;9.438;2024-03-02T09:10:52;12.10;97.40
3705;DHT22;1868;48.918;9.438;2024-03-02T09:13:21;12.20;97.40
3705;DHT22;1868;48.918;9.438;2024-03-02T09:15:50;12.60;97.40
3705;DHT22;1868;48.918;9.438;2024-03-02T09:18:19;13.10;97.40
3705;DHT22;1868;48.918;9.438;2024-03-02T09:20:48;13.70;97.40
3705;DHT22;1868;48.918;9.438;2024-03-02T09:23:17;14.30;97.40
3705;DHT22;1868;48.918;9.438;2024-03-02T09:25:45;14.90;97.40
3705;DHT22;1868;48.918;9.438;2024-03-02T09:28:17;15.70;97.40
3705;DHT22;1868;48.918;9.438;2024-03-02T09:30:46;17.30;97.40
3705;DHT22;1868;48.918;9.438;2024-03-02T09:33:15;18.80;97.40
3705;DHT22;1868;48.918;9.438;2024-03-02T09:35:44;20.30;97.40
3705;DHT22;1868;48.918;9.438;2024-03-02T09:38:13;21.60;97.00
3705;DHT22;1868;48.918;9.438;2024-03-02T09:40:42;22.30;90.40
3705;DHT22;1868;48.918;9.438;2024-03-02T09:43:12;23.30;90.60
3705;DHT22;1868;48.918;9.438;2024-03-02T09:45:45;24.10;84.50
3705;DHT22;1868;48.918;9.438;2024-03-02T09:48:15;25.00;82.50
3705;DHT22;1868;48.918;9.438;2024-03-02T09:50:46;25.50;75.00
3705;DHT22;1868;48.918;9.438;2024-03-02T09:53:15;26.00;73.20
3705;DHT22;1868;48.918;9.438;2024-03-02T09:55:46;26.20;68.50
3705;DHT22;1868;48.918;9.438;2024-03-02T09:58:15;26.20;64.80
3705;DHT22;1868;48.918;9.438;2024-03-02T10:00:46;26.80;68.30
3705;DHT22;1868;48.918;9.438;2024-03-02T10:03:18;27.80;63.50
3705;DHT22;1868;48.918;9.438;2024-03-02T10:05:49;28.60;62.30
3705;DHT22;1868;48.918;9.438;2024-03-02T10:08:18;29.20;63.70
3705;DHT22;1868;48.918;9.438;2024-03-02T10:10:48;30.00;57.00
3705;DHT22;1868;48.918;9.438;2024-03-02T10:13:17;30.40;55.50
3705;DHT22;1868;48.918;9.438;2024-03-02T10:15:48;30.70;55.80
3705;DHT22;1868;48.918;9.438;2024-03-02T10:18:27;31.20;54.30
3705;DHT22;1868;48.918;9.438;2024-03-02T10:21:13;30.70;51.10
3705;DHT22;1868;48.918;9.438;2024-03-02T10:23:42;30.10;51.00
3705;DHT22;1868;48.918;9.438;2024-03-02T10:26:16;29.50;51.30
3705;DHT22;1868;48.918;9.438;2024-03-02T10:28:47;29.40;53.10
3705;DHT22;1868;48.918;9.438;2024-03-02T10:31:17;28.90;53.50
3705;DHT22;1868;48.918;9.438;2024-03-02T10:33:46;28.30;52.90
3705;DHT22;1868;48.918;9.438;2024-03-02T10:36:15;28.70;54.80
3705;DHT22;1868;48.918;9.438;2024-03-02T10:38:46;28.50;52.80
3705;DHT22;1868;48.918;9.438;2024-03-02T10:41:17;28.60;52.60
3705;DHT22;1868;48.918;9.438;2024-03-02T10:43:46;28.50;55.10
3705;DHT22;1868;48.918;9.438;2024-03-02T10:46:19;28.90;52.80
3705;DHT22;1868;48.918;9.438;2024-03-02T10:48:49;29.30;53.90
3705;DHT22;1868;48.918;9.438;2024-03-02T10:51:18;29.50;51.60
3705;DHT22;1868;48.918;9.438;2024-03-02T10:53:47;29.80;52.50
3705;DHT22;1868;48.918;9.438;2024-03-02T10:56:21;29.70;49.30
3705;DHT22;1868;48.918;9.438;2024-03-02T10:59:03;29.60;49.60
3705;DHT22;1868;48.918;9.438;2024-03-02T11:01:39;29.60;48.70
3705;DHT22;1868;48.918;9.438;2024-03-02T11:04:08;29.50;50.80
3705;DHT22;1868;48.918;9.438;2024-03-02T11:06:38;29.50;50.00
3705;DHT22;1868;48.918;9.438;2024-03-02T11:09:10;29.30;49.70
3705;DHT22;1868;48.918;9.438;2024-03-02T11:11:42;29.60;51.10
3705;DHT22;1868;48.918;9.438;2024-03-02T11:14:16;30.10;50.80
3705;DHT22;1868;48.918;9.438;2024-03-02T11:16:46;30.40;50.00
3705;DHT22;1868;48.918;9.438;2024-03-02T11:19:17;30.70;49.60
3705;DHT22;1868;48.918;9.438;2024-03-02T11:21:47;30.40;47.20
3705;DHT22;1868;48.918;9.438;2024-03-02T11:24:33;30.20;46.20
3705;DHT22;1868;48.918;9.438;2024-03-02T11:27:05;30.30;47.60
3705;DHT22;1868;48.918;9.438;2024-03-02T11:29:46;30.50;49.00
3705;DHT22;1868;48.918;9.438;2024-03-02T11:32:20;30.80;47.50
3705;DHT22;1868;48.918;9.438;2024-03-02T11:34:51;31.20;47.80
3705;DHT22;1868;48.918;9.438;2024-03-02T11:37:21;31.50;47.30
3705;DHT22;1868;48.918;9.438;2024-03-02T11:39:51;31.00;44.00
3705;DHT22;1868;48.918;9.438;2024-03-02T11:42:20;30.00;45.50
3705;DHT22;1868;48.918;9.438;2024-03-02T11:44:49;30.40;47.50
3705;DHT22;1868;48.918;9.438;2024-03-02T11:47:20;30.20;46.20
3705;DHT22;1868;48.918;9.438;2024-03-02T11:49:49;30.60;46.40
3705;DHT22;1868;48.918;9.438;2024-03-02T11:52:19;31.10;47.00
3705;DHT22;1868;48.918;9.438;2024-03-02T11:54:49;31.40;46.10
3705;DHT22;1868;48.918;9.438;2024-03-02T11:57:21;31.50;44.70
3705;DHT22;1868;48.918;9.438;2024-03-02T11:59:51;31.20;44.70
3705;DHT22;1868;48.918;9.438;2024-03-02T12:02:23;31.00;43.60
3705;DHT22;1868;48.918;9.438;2024-03-02T12:04:51;31.00;46.10
3705;DHT22;1868;48.918;9.438;2024-03-02T12:07:22;31.20;46.20
3705;DHT22;1868;48.918;9.438;2024-03-02T12:09:59;31.20;44.40
3705;DHT22;1868;48.918;9.438;2024-03-02T12:12:30;30.90;45.50
3705;DHT22;1868;48.918;9.438;2024-03-02T12:15:00;30.10;45.80
3705;DHT22;1868;48.918;9.438;2024-03-02T12:17:30;30.20;47.50
3705;DHT22;1868;48.918;9.438;2024-03-02T12:20:02;30.00;45.20
3705;DHT22;1868;48.918;9.438;2024-03-02T12:22:35;29.80;45.50
3705;DHT22;1868;48.918;9.438;2024-03-02T12:25:04;29.10;45.50
3705;DHT22;1868;48.918;9.438;2024-03-02T12:27:35;28.60;46.10
3705;DHT22;1868;48.918;9.438;2024-03-02T12:30:05;28.70;47.00
3705;DHT22;1868;48.918;9.438;2024-03-02T12:32:40;28.20;49.10
3705;DHT22;1868;48.918;9.438;2024-03-02T12:35:10;28.50;48.70
3705;DHT22;1868;48.918;9.438;2024-03-02T12:37:46;28.00;48.20
3705;DHT22;1868;48.918;9.438;2024-03-02T12:40:18;27.90;47.90
3705;DHT22;1868;48.918;9.438;2024-03-02T12:42:48;28.00;49.40
3705;DHT22;1868;48.918;9.438;2024-03-02T12:45:19;27.20;48.80
3705;DHT22;1868;48.918;9.438;2024-03-02T12:47:54;27.10;50.20
3705;DHT22;1868;48.918;9.438;2024-03-02T12:50:24;27.30;51.40
3705;DHT22;1868;48.918;9.438;2024-03-02T12:52:54;27.50;51.30
3705;DHT22;1868;48.918;9.438;2024-03-02T12:55:26;27.70;49.10
3705;DHT22;1868;48.918;9.438;2024-03-02T12:57:56;27.40;48.40
3705;DHT22;1868;48.918;9.438;2024-03-02T13:00:27;27.50;50.50
3705;DHT22;1868;48.918;9.438;2024-03-02T13:02:59;27.60;49.30
3705;DHT22;1868;48.918;9.438;2024-03-02T13:05:30;27.40;48.50
3705;DHT22;1868;48.918;9.438;2024-03-02T13:08:00;27.50;48.80
3705;DHT22;1868;48.918;9.438;2024-03-02T13:10:32;27.40;49.00
3705;DHT22;1868;48.918;9.438;2024-03-02T13:13:01;27.50;48.40
3705;DHT22;1868;48.918;9.438;2024-03-02T13:15:30;27.40;48.70
3705;DHT22;1868;48.918;9.438;2024-03-02T13:18:03;27.70;48.10
3705;DHT22;1868;48.918;9.438;2024-03-02T13:20:32;27.60;48.20
3705;DHT22;1868;48.918;9.438;2024-03-02T13:23:02;27.60;47.90
3705;DHT22;1868;48.918;9.438;2024-03-02T13:25:32;26.90;46.10
3705;DHT22;1868;48.918;9.438;2024-03-02T13:28:01;26.80;49.00
3705;DHT22;1868;48.918;9.438;2024-03-02T13:30:30;26.50;47.00
3705;DHT22;1868;48.918;9.438;2024-03-02T13:32:59;26.90;50.20
3705;DHT22;1868;48.918;9.438;2024-03-02T13:35:31;27.10;48.50
3705;DHT22;1868;48.918;9.438;2024-03-02T13:38:01;27.50;48.20
3705;DHT22;1868;48.918;9.438;2024-03-02T13:40:32;27.30;47.90
3705;DHT22;1868;48.918;9.438;2024-03-02T13:43:03;27.10;49.00
3705;DHT22;1868;48.918;9.438;2024-03-02T13:45:32;27.40;49.10
3705;DHT22;1868;48.918;9.438;2024-03-02T13:48:06;27.50;47.90
3705;DHT22;1868;48.918;9.438;2024-03-02T13:50:35;27.30;46.80
3705;DHT22;1868;48.918;9.438;2024-03-02T13:53:04;27.00;46.10
3705;DHT22;1868;48.918;9.438;2024-03-02T13:55:33;27.10;45.90
3705;DHT22;1868;48.918;9.438;2024-03-02T13:58:03;27.40;46.80
3705;DHT22;1868;48.918;9.438;2024-03-02T14:00:32;27.50;48.10
3705;DHT22;1868;48.918;9.438;2024-03-02T14:03:01;27.20;45.60
3705;DHT22;1868;48.918;9.438;2024-03-02T14:05:32;27.20;46.10
3705;DHT22;1868;48.918;9.438;2024-03-02T14:08:02;26.90;45.50
3705;DHT22;1868;48.918;9.438;2024-03-02T14:10:32;27.30;46.40
3705;DHT22;1868;48.918;9.438;2024-03-02T14:13:03;27.60;46.40
3705;DHT22;1868;48.918;9.438;2024-03-02T14:15:32;27.80;46.10
3705;DHT22;1868;48.918;9.438;2024-03-02T14:18:06;27.60;44.40
3705;DHT22;1868;48.918;9.438;2024-03-02T14:20:38;28.00;46.40
3705;DHT22;1868;48.918;9.438;2024-03-02T14:23:12;28.20;45.80
3705;DHT22;1868;48.918;9.438;2024-03-02T14:25:43;28.30;43.50
3705;DHT22;1868;48.918;9.438;2024-03-02T14:28:13;28.20;44.30
3705;DHT22;1868;48.918;9.438;2024-03-02T14:31:03;28.20;45.00
3705;DHT22;1868;48.918;9.438;2024-03-02T14:33:33;27.70;44.60
3705;DHT22;1868;48.918;9.438;2024-03-02T14:36:05;27.50;44.40
3705;DHT22;1868;48.918;9.438;2024-03-02T14:38:34;27.30;45.50
3705;DHT22;1868;48.918;9.438;2024-03-02T14:41:04;27.20;46.50
3705;DHT22;1868;48.918;9.438;2024-03-02T14:43:33;27.20;46.50
3705;DHT22;1868;48.918;9.438;2024-03-02T14:46:04;26.90;47.20
3705;DHT22;1868;48.918;9.438;2024-03-02T14:48:38;26.50;47.80
3705;DHT22;1868;48.918;9.438;2024-03-02T14:51:09;26.30;47.20
3705;DHT22;1868;48.918;9.438;2024-03-02T14:53:38;26.00;46.40
3705;DHT22;1868;48.918;9.438;2024-03-02T14:56:07;25.70;49.00
3705;DHT22;1868;48.918;9.438;2024-03-02T14:58:38;25.70;48.40
3705;DHT22;1868;48.918;9.438;2024-03-02T15:01:08;25.60;48.70
3705;DHT22;1868;48.918;9.438;2024-03-02T15:03:37;25.40;47.50
3705;DHT22;1868;48.918;9.438;2024-03-02T15:06:06;25.00;48.40
3705;DHT22;1868;48.918;9.438;2024-03-02T15:08:36;24.80;49.30
3705;DHT22;1868;48.918;9.438;2024-03-02T15:11:05;24.60;49.70
3705;DHT22;1868;48.918;9.438;2024-03-02T15:13:34;24.40;51.00
3705;DHT22;1868;48.918;9.438;2024-03-02T15:16:03;24.30;51.70
3705;DHT22;1868;48.918;9.438;2024-03-02T15:18:32;24.10;52.50
3705;DHT22;1868;48.918;9.438;2024-03-02T15:21:02;23.90;53.10
3705;DHT22;1868;48.918;9.438;2024-03-02T15:23:32;23.70;51.30
3705;DHT22;1868;48.918;9.438;2024-03-02T15:26:03;23.80;52.90
3705;DHT22;1868;48.918;9.438;2024-03-02T15:28:32;23.80;53.90
3705;DHT22;1868;48.918;9.438;2024-03-02T15:31:01;23.50;55.20
3705;DHT22;1868;48.918;9.438;2024-03-02T15:33:31;23.00;56.60
3705;DHT22;1868;48.918;9.438;2024-03-02T15:36:01;22.70;56.90
3705;DHT22;1868;48.918;9.438;2024-03-02T15:38:33;22.30;58.70
3705;DHT22;1868;48.918;9.438;2024-03-02T15:41:10;21.90;61.60
3705;DHT22;1868;48.918;9.438;2024-03-02T15:43:38;21.40;63.50
3705;DHT22;1868;48.918;9.438;2024-03-02T15:46:08;20.80;66.10
3705;DHT22;1868;48.918;9.438;2024-03-02T15:48:37;20.30;66.60
3705;DHT22;1868;48.918;9.438;2024-03-02T15:51:06;19.80;70.00
3705;DHT22;1868;48.918;9.438;2024-03-02T15:53:36;19.40;71.70
3705;DHT22;1868;48.918;9.438;2024-03-02T15:56:04;19.10;73.30
3705;DHT22;1868;48.918;9.438;2024-03-02T15:58:37;18.70;75.00
3705;DHT22;1868;48.918;9.438;2024-03-02T16:01:06;18.50;76.30
3705;DHT22;1868;48.918;9.438;2024-03-02T16:03:34;18.10;78.00
3705;DHT22;1868;48.918;9.438;2024-03-02T16:06:03;17.80;79.50
3705;DHT22;1868;48.918;9.438;2024-03-02T16:08:33;17.60;81.70
3705;DHT22;1868;48.918;9.438;2024-03-02T16:11:02;17.20;82.70
3705;DHT22;1868;48.918;9.438;2024-03-02T16:13:32;17.00;82.80
3705;DHT22;1868;48.918;9.438;2024-03-02T16:16:06;16.70;83.80
3705;DHT22;1868;48.918;9.438;2024-03-02T16:18:35;16.40;84.70
3705;DHT22;1868;48.918;9.438;2024-03-02T16:21:04;16.20;86.80
3705;DHT22;1868;48.918;9.438;2024-03-02T16:23:34;16.10;89.20
3705;DHT22;1868;48.918;9.438;2024-03-02T16:26:03;15.90;90.20
3705;DHT22;1868;48.918;9.438;2024-03-02T16:28:32;15.80;90.90
3705;DHT22;1868;48.918;9.438;2024-03-02T16:31:00;15.70;91.70